createdAt,value
2024-04-19T00:00:54.797Z,1.40
2024-04-19T00:03:42.743Z,1.40
2024-04-19T00:06:10.998Z,1.50
2024-04-19T00:08:38.881Z,1.60
2024-04-19T00:11:07.093Z,1.70
2024-04-19T00:13:35.443Z,1.80
2024-04-19T00:16:03.192Z,1.80
2024-04-19T00:18:31.000Z,1.80
2024-04-19T00:20:59.282Z,1.60
2024-04-19T00:23:26.961Z,1.70
2024-04-19T00:25:55.325Z,1.60
2024-04-19T00:28:41.265Z,1.40
2024-04-19T00:31:09.862Z,1.60
2024-04-19T00:33:38.669Z,2.00
2024-04-19T00:36:07.946Z,1.70
2024-04-19T00:38:35.775Z,2.00
2024-04-19T00:41:03.804Z,1.70
2024-04-19T00:43:33.703Z,1.50
2024-04-19T00:46:02.610Z,1.80
2024-04-19T00:48:30.273Z,1.90
2024-04-19T00:50:59.976Z,2.30
2024-04-19T00:53:30.691Z,1.90
2024-04-19T00:56:01.875Z,1.60
2024-04-19T00:58:30.656Z,2.40
2024-04-19T01:01:04.693Z,1.90
2024-04-19T01:03:33.365Z,2.30
2024-04-19T01:06:01.346Z,2.20
2024-04-19T01:08:30.109Z,2.30
2024-04-19T01:10:59.193Z,1.90
2024-04-19T01:13:26.958Z,1.80
2024-04-19T01:15:55.306Z,1.60
2024-04-19T01:18:23.178Z,2.50
2024-04-19T01:20:51.093Z,2.10
2024-04-19T01:23:20.124Z,2.30
2024-04-19T01:25:49.158Z,2.70
2024-04-19T01:28:17.257Z,2.10
2024-04-19T01:30:46.262Z,2.10
2024-04-19T01:33:14.933Z,2.00
2024-04-19T01:35:42.994Z,1.80
2024-04-19T01:38:10.771Z,2.10
2024-04-19T01:40:38.749Z,1.80
2024-04-19T01:43:06.411Z,2.00
2024-04-19T01:45:34.212Z,2.50
2024-04-19T01:48:02.992Z,2.60
2024-04-19T01:50:30.947Z,2.00
2024-04-19T01:52:58.601Z,2.20
2024-04-19T01:55:26.263Z,2.60
2024-04-19T01:57:53.952Z,2.80
2024-04-19T02:00:21.801Z,2.30
2024-04-19T02:02:49.457Z,2.10
2024-04-19T02:05:17.203Z,2.30
2024-04-19T02:07:44.931Z,2.10
2024-04-19T02:10:12.753Z,2.70
2024-04-19T02:12:40.648Z,2.40
2024-04-19T02:15:08.602Z,2.20
2024-04-19T02:17:36.492Z,2.10
2024-04-19T02:20:04.957Z,2.40
2024-04-19T02:22:32.611Z,2.80
2024-04-19T02:25:00.340Z,2.70
2024-04-19T02:27:46.951Z,2.70
2024-04-19T02:30:34.049Z,2.30
2024-04-19T02:33:01.810Z,2.40
2024-04-19T02:35:29.844Z,2.50
2024-04-19T02:37:57.612Z,2.50
2024-04-19T02:40:25.374Z,1.70
2024-04-19T02:42:53.122Z,2.00
2024-04-19T02:45:21.512Z,2.20
2024-04-19T02:47:49.226Z,2.60
2024-04-19T02:50:17.174Z,2.60
2024-04-19T02:52:45.026Z,2.20
2024-04-19T02:55:12.993Z,2.50
2024-04-19T02:57:40.831Z,2.40
2024-04-19T03:00:09.553Z,2.00
2024-04-19T03:02:45.328Z,2.10
2024-04-19T03:05:13.282Z,2.40
2024-04-19T03:07:41.388Z,2.60
2024-04-19T03:10:09.056Z,2.20
2024-04-19T03:12:36.690Z,2.40
2024-04-19T03:15:05.162Z,2.80
2024-04-19T03:17:32.998Z,2.50
2024-04-19T03:20:00.740Z,3.20
2024-04-19T03:22:28.570Z,2.40
2024-04-19T03:24:56.221Z,2.50
2024-04-19T03:27:24.013Z,3.00
2024-04-19T03:29:59.132Z,2.60
2024-04-19T03:32:27.302Z,2.50
2024-04-19T03:34:55.116Z,2.40
2024-04-19T03:37:22.954Z,3.20
2024-04-19T03:39:50.637Z,2.60
2024-04-19T03:42:21.838Z,2.60
2024-04-19T03:48:40.948Z,2.30
2024-04-19T03:51:08.907Z,2.90
2024-04-19T03:53:36.675Z,2.40
2024-04-19T03:56:05.151Z,2.80
2024-04-19T03:58:32.816Z,2.90
2024-04-19T04:01:06.539Z,2.90
2024-04-19T04:03:34.603Z,2.40
2024-04-19T04:06:02.983Z,2.20
2024-04-19T04:08:30.629Z,2.40
2024-04-19T04:11:01.798Z,2.60
2024-04-19T04:13:30.355Z,2.20
2024-04-19T04:15:58.132Z,2.20
2024-04-19T04:18:26.354Z,2.70
2024-04-19T04:20:54.271Z,2.60
2024-04-19T04:23:21.957Z,2.50
2024-04-19T04:25:49.724Z,3.00
2024-04-19T04:28:17.365Z,2.90
2024-04-19T04:30:45.045Z,2.40
2024-04-19T04:33:13.059Z,2.30
2024-04-19T04:35:40.972Z,2.20
2024-04-19T04:38:08.654Z,2.40
2024-04-19T04:40:37.128Z,3.00
2024-04-19T04:43:05.398Z,2.50
2024-04-19T04:45:33.347Z,2.40
2024-04-19T04:48:01.289Z,2.50
2024-04-19T04:50:29.203Z,2.40
2024-04-19T04:53:03.058Z,2.20
2024-04-19T04:55:31.400Z,2.50
2024-04-19T04:58:00.519Z,2.90
2024-04-19T05:00:30.342Z,3.00
2024-04-19T05:02:59.022Z,2.40
2024-04-19T05:05:27.170Z,2.60
2024-04-19T05:07:55.244Z,2.40
2024-04-19T05:10:23.012Z,2.20
2024-04-19T05:12:50.833Z,2.80
2024-04-19T05:15:18.928Z,2.80
2024-04-19T05:17:47.222Z,2.50
2024-04-19T05:20:15.133Z,2.70
2024-04-19T05:22:43.022Z,3.10
2024-04-19T05:25:10.753Z,2.70
2024-04-19T05:27:39.544Z,3.50
2024-04-19T05:30:07.974Z,3.50
2024-04-19T05:32:35.710Z,3.50
2024-04-19T05:35:03.676Z,3.10
2024-04-19T05:37:31.414Z,3.10
2024-04-19T05:39:59.084Z,3.30
2024-04-19T05:42:27.225Z,3.40
2024-04-19T05:44:55.415Z,3.80
2024-04-19T05:47:23.099Z,3.10
2024-04-19T05:49:50.737Z,3.30
2024-04-19T05:52:18.440Z,3.00
2024-04-19T05:54:46.413Z,3.20
2024-04-19T05:57:14.459Z,3.00
2024-04-19T05:59:42.520Z,3.40
2024-04-19T06:02:10.329Z,2.70
2024-04-19T06:04:38.160Z,3.10
2024-04-19T06:07:06.053Z,2.80
2024-04-19T06:09:39.647Z,2.60
2024-04-19T06:12:11.082Z,2.80
2024-04-19T06:14:41.893Z,2.50
2024-04-19T06:17:14.807Z,2.60
2024-04-19T06:19:44.424Z,2.70
2024-04-19T06:22:16.483Z,2.10
2024-04-19T06:24:48.704Z,2.50
2024-04-19T06:27:20.270Z,2.20
2024-04-19T06:29:53.321Z,2.50
2024-04-19T06:32:23.153Z,2.70
2024-04-19T06:34:53.291Z,2.40
2024-04-19T06:37:23.548Z,2.40
2024-04-19T06:39:59.439Z,2.10
2024-04-19T06:42:35.113Z,2.50
2024-04-19T06:45:05.321Z,2.20
2024-04-19T06:47:34.117Z,2.30
2024-04-19T06:50:02.093Z,2.40
2024-04-19T06:52:30.350Z,2.00
2024-04-19T06:54:59.068Z,2.80
2024-04-19T06:57:27.566Z,2.80
2024-04-19T07:00:05.313Z,3.00
2024-04-19T07:02:39.466Z,1.90
2024-04-19T07:05:07.537Z,2.40
2024-04-19T07:07:35.585Z,2.50
2024-04-19T07:10:04.694Z,2.70
2024-04-19T07:12:33.342Z,2.50
2024-04-19T07:15:01.313Z,2.30
2024-04-19T07:17:29.275Z,2.40
2024-04-19T07:20:00.161Z,2.20
2024-04-19T07:22:28.802Z,2.00
2024-04-19T07:24:56.473Z,1.90
2024-04-19T07:27:30.497Z,2.30
2024-04-19T07:30:04.557Z,2.30
2024-04-19T07:32:32.410Z,2.10
2024-04-19T07:35:00.022Z,2.20
2024-04-19T07:37:28.705Z,2.30
2024-04-19T07:39:57.032Z,2.00
2024-04-19T07:42:24.784Z,2.50
2024-04-19T07:44:52.516Z,1.80
2024-04-19T07:47:20.191Z,2.00
2024-04-19T07:49:48.475Z,1.90
2024-04-19T07:52:17.449Z,2.10
2024-04-19T07:54:46.701Z,1.50
2024-04-19T07:57:15.366Z,1.70
2024-04-19T07:59:43.726Z,1.80
2024-04-19T08:02:11.857Z,2.00
2024-04-19T08:04:39.922Z,1.80
2024-04-19T08:07:08.796Z,1.40
2024-04-19T08:09:39.248Z,1.40
2024-04-19T08:12:07.951Z,1.70
2024-04-19T08:14:35.751Z,1.80
2024-04-19T08:17:03.334Z,1.40
2024-04-19T08:19:31.510Z,1.70
2024-04-19T08:21:59.411Z,1.60
2024-04-19T08:24:28.606Z,1.40
2024-04-19T08:26:57.596Z,1.50
2024-04-19T08:29:35.028Z,1.50
2024-04-19T08:32:10.824Z,1.50
2024-04-19T08:34:41.762Z,1.60
2024-04-19T08:37:10.663Z,1.60
2024-04-19T08:39:39.899Z,0.80
2024-04-19T08:42:10.368Z,1.40
2024-04-19T08:44:45.349Z,1.30
2024-04-19T08:47:16.136Z,1.10
2024-04-19T08:49:45.963Z,1.10
2024-04-19T08:52:39.110Z,1.40
2024-04-19T08:55:08.623Z,1.40
2024-04-19T08:57:37.164Z,1.00
2024-04-19T09:00:13.214Z,1.20
2024-04-19T09:02:43.437Z,1.10
2024-04-19T09:05:11.764Z,0.80
2024-04-19T09:07:41.507Z,1.60
2024-04-19T09:10:14.306Z,1.30
2024-04-19T09:12:42.252Z,1.30
2024-04-19T09:15:09.985Z,0.80
2024-04-19T09:17:37.803Z,0.70
2024-04-19T09:20:07.395Z,0.90
2024-04-19T09:22:35.599Z,1.10
2024-04-19T09:25:03.710Z,0.60
2024-04-19T09:27:32.871Z,0.70
2024-04-19T09:30:02.890Z,0.90
2024-04-19T09:32:31.619Z,0.90
2024-04-19T09:34:59.696Z,0.70
2024-04-19T09:37:29.922Z,0.80
2024-04-19T09:39:58.370Z,0.70
2024-04-19T09:42:26.454Z,0.80
2024-04-19T09:44:54.247Z,1.10
2024-04-19T09:47:25.091Z,1.00
2024-04-19T09:49:58.472Z,0.80
2024-04-19T09:52:31.090Z,0.60
2024-04-19T09:55:17.677Z,0.70
2024-04-19T09:57:47.697Z,0.60
2024-04-19T10:00:19.129Z,0.70
2024-04-19T10:02:47.628Z,0.60
2024-04-19T10:05:15.596Z,0.80
2024-04-19T10:07:44.701Z,0.80
2024-04-19T10:10:12.319Z,0.60
2024-04-19T10:12:43.025Z,0.60
2024-04-19T10:15:12.558Z,1.10
2024-04-19T10:18:13.600Z,0.60
2024-04-19T10:20:44.429Z,0.50
2024-04-19T10:23:15.304Z,0.80
2024-04-19T10:25:46.487Z,0.60
2024-04-19T10:28:17.481Z,0.60
2024-04-19T10:30:46.680Z,0.80
2024-04-19T10:33:16.971Z,0.50
2024-04-19T10:35:47.236Z,0.60
2024-04-19T10:38:15.281Z,0.40
2024-04-19T10:40:43.866Z,0.60
2024-04-19T10:43:11.553Z,0.70
2024-04-19T10:45:39.536Z,0.60
2024-04-19T10:48:08.135Z,0.60
2024-04-19T10:50:35.978Z,0.40
2024-04-19T10:53:03.746Z,0.40
2024-04-19T10:55:31.518Z,0.40
2024-04-19T10:57:59.314Z,0.50
2024-04-19T11:00:28.259Z,0.60
2024-04-19T11:03:09.886Z,0.40
2024-04-19T11:05:42.945Z,0.40
2024-04-19T11:08:10.935Z,0.40
2024-04-19T11:10:38.697Z,0.40
2024-04-19T11:13:06.502Z,0.50
2024-04-19T11:15:40.282Z,0.50
2024-04-19T11:20:47.851Z,0.20
2024-04-19T11:23:20.043Z,0.30
2024-04-19T11:25:48.010Z,0.40
2024-04-19T11:28:16.280Z,0.40
2024-04-19T11:30:43.964Z,0.70
2024-04-19T11:33:12.773Z,0.30
2024-04-19T11:35:44.591Z,0.40
2024-04-19T11:38:16.883Z,0.40
2024-04-19T11:40:45.416Z,0.30
2024-04-19T11:43:13.380Z,0.50
2024-04-19T11:45:45.649Z,0.30
2024-04-19T11:48:27.416Z,0.20
2024-04-19T11:50:56.392Z,0.40
2024-04-19T11:53:24.781Z,0.40
2024-04-19T11:55:54.346Z,0.40
2024-04-19T11:58:22.245Z,0.20
2024-04-19T12:00:50.399Z,0.40
2024-04-19T12:03:18.343Z,0.40
2024-04-19T12:05:46.704Z,0.20
2024-04-19T12:08:15.052Z,0.20
2024-04-19T12:10:43.072Z,0.30
2024-04-19T12:13:50.854Z,0.30
2024-04-19T12:16:30.717Z,0.20
2024-04-19T12:18:46.786Z,0.20
2024-04-19T12:21:15.102Z,0.60
2024-04-19T12:23:45.759Z,0.30
2024-04-19T12:28:53.356Z,0.30
2024-04-19T12:31:26.386Z,0.30
2024-04-19T12:33:54.143Z,0.40
2024-04-19T12:36:21.763Z,0.40
2024-04-19T12:38:50.764Z,0.10
2024-04-19T12:41:19.152Z,0.30
2024-04-19T12:43:49.096Z,0.30
2024-04-19T12:46:16.882Z,0.20
2024-04-19T12:48:46.138Z,0.20
2024-04-19T12:51:15.084Z,0.20
2024-04-19T12:53:46.628Z,0.10
2024-04-19T12:58:43.066Z,0.20
2024-04-19T13:01:11.471Z,0.20
2024-04-19T13:03:39.403Z,0.20
2024-04-19T13:06:08.461Z,0.20
2024-04-19T13:08:36.963Z,0.20
2024-04-19T13:11:05.073Z,0.10
2024-04-19T13:13:49.808Z,0.20
2024-04-19T13:16:17.646Z,0.20
2024-04-19T13:18:45.839Z,0.10
2024-04-19T13:21:13.553Z,0.20
2024-04-19T13:23:42.300Z,0.10
2024-04-19T13:26:10.555Z,0.10
2024-04-19T13:28:40.512Z,0.20
2024-04-19T13:31:08.478Z,0.00
2024-04-19T13:33:36.418Z,0.20
2024-04-19T13:36:04.715Z,0.20
2024-04-19T13:38:32.551Z,0.10
2024-04-19T13:41:00.554Z,0.00
2024-04-19T13:43:30.066Z,0.10
2024-04-19T13:45:58.721Z,0.00
2024-04-19T13:48:27.495Z,0.20
2024-04-19T13:50:55.256Z,0.10
2024-04-19T13:53:23.219Z,0.10
2024-04-19T13:55:50.987Z,0.10
2024-04-19T13:58:18.568Z,0.10
2024-04-19T14:00:46.281Z,0.10
2024-04-19T14:03:17.969Z,0.10
2024-04-19T14:08:13.346Z,0.10
2024-04-19T14:10:43.639Z,0.00
2024-04-19T14:13:11.394Z,0.30
2024-04-19T14:15:39.967Z,0.20
2024-04-19T14:18:07.923Z,0.10
2024-04-19T14:20:36.261Z,0.20
2024-04-19T14:23:05.031Z,0.10
2024-04-19T14:25:35.585Z,0.30
2024-04-19T14:28:03.558Z,0.10
2024-04-19T14:30:31.339Z,0.10
2024-04-19T14:32:59.138Z,0.10
2024-04-19T14:35:27.759Z,0.20
2024-04-19T14:37:56.058Z,0.20
2024-04-19T14:40:23.747Z,0.30
2024-04-19T14:42:51.416Z,0.10
2024-04-19T14:45:19.299Z,0.20
2024-04-19T14:47:47.152Z,0.10
2024-04-19T14:50:15.328Z,0.10
2024-04-19T14:52:53.325Z,0.10
2024-04-19T14:55:28.151Z,0.40
2024-04-19T14:57:56.203Z,0.20
2024-04-19T15:00:25.488Z,0.10
2024-04-19T15:02:53.092Z,0.20
2024-04-19T15:05:21.505Z,0.10
2024-04-19T15:07:51.484Z,0.20
2024-04-19T15:10:19.186Z,0.10
2024-04-19T15:12:46.836Z,0.20
2024-04-19T15:15:14.771Z,0.20
2024-04-19T15:17:43.803Z,0.10
2024-04-19T15:20:15.308Z,0.20
2024-04-19T15:22:43.898Z,0.20
2024-04-19T15:25:11.831Z,0.50
2024-04-19T15:27:39.917Z,0.20
2024-04-19T15:30:09.031Z,0.20
2024-04-19T15:32:38.540Z,0.30
2024-04-19T15:35:10.121Z,0.20
2024-04-19T15:37:38.801Z,0.20
2024-04-19T15:40:07.661Z,0.10
2024-04-19T15:42:35.418Z,0.10
2024-04-19T15:45:03.875Z,0.10
2024-04-19T15:47:31.836Z,0.20
2024-04-19T15:49:59.475Z,0.10
2024-04-19T15:52:27.621Z,0.10
2024-04-19T15:54:56.164Z,0.20
2024-04-19T15:57:24.730Z,0.20
2024-04-19T15:59:53.015Z,0.20
2024-04-19T16:02:21.565Z,0.10
2024-04-19T16:04:53.003Z,0.20
2024-04-19T16:10:04.140Z,0.10
2024-04-19T16:12:32.731Z,0.20
2024-04-19T16:15:01.860Z,0.10
2024-04-19T16:17:30.799Z,0.20
2024-04-19T16:19:59.293Z,0.10
2024-04-19T16:22:27.791Z,0.50
2024-04-19T16:24:56.929Z,0.60
2024-04-19T16:27:25.271Z,0.70
2024-04-19T16:29:54.739Z,0.90
2024-04-19T16:32:23.009Z,0.90
2024-04-19T16:34:51.441Z,1.00
2024-04-19T16:37:22.285Z,0.80
2024-04-19T16:39:51.217Z,1.10
2024-04-19T16:42:19.623Z,0.70
2024-04-19T16:44:51.435Z,0.70
2024-04-19T16:47:21.908Z,0.70
2024-04-19T16:49:50.644Z,0.60
2024-04-19T16:52:18.800Z,0.50
2024-04-19T16:54:47.186Z,0.50
2024-04-19T16:57:15.398Z,0.90
2024-04-19T16:59:43.557Z,0.60
2024-04-19T17:02:11.860Z,0.90
2024-04-19T17:04:40.841Z,1.10
2024-04-19T17:07:09.378Z,1.10
2024-04-19T17:09:37.892Z,1.00
2024-04-19T17:12:08.532Z,1.20
2024-04-19T17:14:36.645Z,1.00
2024-04-19T17:17:04.655Z,1.10
2024-04-19T17:19:32.454Z,1.10
2024-04-19T17:22:00.112Z,0.70
2024-04-19T17:24:27.837Z,1.10
2024-04-19T17:26:55.406Z,0.80
2024-04-19T17:29:23.251Z,1.00
2024-04-19T17:31:52.319Z,0.80
2024-04-19T17:34:20.963Z,0.80
2024-04-19T17:36:50.789Z,0.80
2024-04-19T17:39:18.454Z,1.10
2024-04-19T17:41:46.040Z,0.80
2024-04-19T17:44:14.023Z,0.90
2024-04-19T17:46:41.562Z,0.80
2024-04-19T17:49:09.204Z,1.00
2024-04-19T17:51:36.772Z,0.80
2024-04-19T17:54:04.422Z,1.00
2024-04-19T17:56:32.018Z,1.40
2024-04-19T17:58:59.635Z,0.60
2024-04-19T18:01:30.503Z,0.90
2024-04-19T18:03:58.513Z,1.10
2024-04-19T18:06:26.151Z,0.80
2024-04-19T18:08:54.298Z,1.00
2024-04-19T18:11:21.841Z,1.00
2024-04-19T18:13:49.499Z,1.00
2024-04-19T18:16:17.005Z,1.00
2024-04-19T18:18:44.861Z,1.00
2024-04-19T18:21:13.920Z,1.30
2024-04-19T18:23:41.429Z,1.20
2024-04-19T18:26:09.060Z,1.10
2024-04-19T18:28:37.116Z,1.30
2024-04-19T18:31:05.737Z,1.20
2024-04-19T18:33:33.537Z,1.00
2024-04-19T18:36:01.476Z,1.10
2024-04-19T18:38:28.957Z,0.70
2024-04-19T18:40:56.620Z,1.30
2024-04-19T18:43:24.735Z,1.10
2024-04-19T18:45:52.326Z,1.40
2024-04-19T18:48:19.967Z,1.40
2024-04-19T18:50:47.779Z,1.00
2024-04-19T18:53:15.375Z,1.20
2024-04-19T18:55:42.987Z,1.00
2024-04-19T18:58:10.515Z,1.50
2024-04-19T19:00:40.929Z,1.50
2024-04-19T19:03:08.537Z,1.50
2024-04-19T19:05:36.456Z,1.10
2024-04-19T19:08:04.258Z,1.50
2024-04-19T19:10:35.903Z,1.10
2024-04-19T19:13:04.759Z,1.20
2024-04-19T19:15:32.570Z,1.10
2024-04-19T19:18:01.123Z,1.30
2024-04-19T19:20:28.955Z,1.40
2024-04-19T19:22:57.257Z,0.80
2024-04-19T19:25:24.852Z,1.10
2024-04-19T19:27:52.383Z,1.70
2024-04-19T19:30:20.171Z,1.10
2024-04-19T19:32:47.898Z,1.10
2024-04-19T19:35:15.467Z,1.90
2024-04-19T19:37:43.077Z,1.20
2024-04-19T19:40:11.355Z,1.30
2024-04-19T19:42:38.976Z,1.20
2024-04-19T19:45:06.777Z,1.30
2024-04-19T19:47:34.444Z,1.10
2024-04-19T19:50:04.702Z,1.40
2024-04-19T19:52:32.402Z,1.10
2024-04-19T19:55:02.200Z,1.10
2024-04-19T19:57:30.346Z,1.30
2024-04-19T20:00:16.666Z,1.40
2024-04-19T20:03:05.329Z,1.40
2024-04-19T20:05:49.204Z,1.20
2024-04-19T20:08:18.189Z,1.60
2024-04-19T20:10:46.301Z,1.60
2024-04-19T20:13:15.273Z,1.40
2024-04-19T20:15:47.922Z,1.30
2024-04-19T20:18:18.132Z,1.10
2024-04-19T20:20:54.036Z,1.50
2024-04-19T20:23:22.723Z,1.90
2024-04-19T20:25:50.388Z,1.50
2024-04-19T20:28:18.012Z,1.10
2024-04-19T20:30:45.904Z,1.40
2024-04-19T20:33:13.754Z,1.20
2024-04-19T20:35:41.583Z,1.10
2024-04-19T20:38:09.284Z,1.50
2024-04-19T20:40:37.089Z,1.30
2024-04-19T20:43:15.217Z,1.20
2024-04-19T20:45:48.572Z,1.00
2024-04-19T20:48:19.654Z,1.20
2024-04-19T20:50:51.305Z,1.40
2024-04-19T20:53:19.029Z,1.20
2024-04-19T20:55:46.613Z,1.60
2024-04-19T20:58:14.253Z,1.20
2024-04-19T21:00:42.061Z,1.20
2024-04-19T21:03:09.965Z,1.40
2024-04-19T21:05:37.835Z,1.00
2024-04-19T21:08:06.115Z,1.00
2024-04-19T21:10:33.817Z,1.20
2024-04-19T21:13:01.805Z,0.90
2024-04-19T21:15:32.249Z,1.20
2024-04-19T21:18:00.014Z,1.20
2024-04-19T21:20:39.214Z,1.30
2024-04-19T21:23:06.877Z,1.30
2024-04-19T21:25:39.662Z,1.20
2024-04-19T21:28:07.973Z,0.80
2024-04-19T21:30:35.585Z,1.00
2024-04-19T21:33:03.465Z,0.80
2024-04-19T21:35:31.004Z,1.00
2024-04-19T21:37:58.626Z,0.90
2024-04-19T21:40:26.295Z,0.90
2024-04-19T21:42:53.879Z,1.10
2024-04-19T21:45:23.073Z,0.70
2024-04-19T21:47:51.234Z,1.00
2024-04-19T21:50:18.809Z,1.10
2024-04-19T21:52:46.436Z,1.00
2024-04-19T21:55:14.150Z,1.10
2024-04-19T21:57:42.174Z,1.20
2024-04-19T22:00:12.851Z,1.10
2024-04-19T22:02:40.555Z,1.10
2024-04-19T22:05:08.238Z,1.10
2024-04-19T22:07:36.126Z,1.20
2024-04-19T22:10:04.552Z,0.90
2024-04-19T22:12:32.494Z,0.90
2024-04-19T22:15:00.311Z,0.60
2024-04-19T22:17:28.288Z,0.90
2024-04-19T22:19:57.439Z,1.00
2024-04-19T22:22:25.935Z,1.00
2024-04-19T22:24:53.544Z,1.20
2024-04-19T22:27:21.563Z,0.80
2024-04-19T22:29:53.404Z,1.10
2024-04-19T22:32:20.958Z,0.90
2024-04-19T22:34:48.795Z,0.90
2024-04-19T22:37:16.396Z,1.10
2024-04-19T22:39:45.686Z,1.10
2024-04-19T22:42:13.346Z,0.70
2024-04-19T22:44:40.918Z,1.00
2024-04-19T22:47:08.590Z,1.30
2024-04-19T22:49:36.238Z,1.00
2024-04-19T22:52:04.220Z,1.00
2024-04-19T22:54:32.064Z,1.00
2024-04-19T22:56:59.810Z,1.20
2024-04-19T22:59:27.433Z,1.10
2024-04-19T23:01:55.130Z,0.80
2024-04-19T23:04:22.851Z,0.80
2024-04-19T23:06:50.360Z,0.90
2024-04-19T23:09:17.875Z,0.90
2024-04-19T23:11:45.454Z,1.10
2024-04-19T23:14:12.999Z,1.10
2024-04-19T23:16:40.540Z,0.90
2024-04-19T23:19:08.793Z,0.90
2024-04-19T23:21:36.499Z,1.30
2024-04-19T23:24:08.746Z,1.10
2024-04-19T23:26:36.294Z,1.10
2024-04-19T23:29:05.198Z,0.90
2024-04-19T23:31:33.344Z,0.80
2024-04-19T23:34:01.029Z,1.00
2024-04-19T23:36:28.968Z,0.80
2024-04-19T23:38:56.854Z,1.20
2024-04-19T23:41:25.142Z,1.20
2024-04-19T23:43:53.119Z,0.70
2024-04-19T23:46:20.786Z,1.20
2024-04-19T23:48:48.674Z,0.60
2024-04-19T23:51:16.283Z,0.70
2024-04-19T23:53:43.825Z,0.90
2024-04-19T23:56:11.489Z,0.80
2024-04-19T23:58:39.087Z,1.10
